Time;durP1;ratioP1;P1;durP2;ratioP2;P2;SDS_P1;SDS_P2;PMS_P1;PMS_P2;Temp;Humidity;BMP_temperature;BMP_pressure;BME280_temperature;BME280_humidity;BME280_pressure;Samples;Min_cycle;Max_cycle;Signal;HPM_P1;HPM_P2
2023/04/11 00:01:17;;;;;;;6.63;1.50;;;8.40;99.90;;;;;;4865027;29;20041;-83
2023/04/11 00:03:44;;;;;;;5.95;1.45;;;8.40;99.90;;;;;;4867861;29;20412;-82
2023/04/11 00:06:10;;;;;;;5.30;1.50;;;8.20;99.90;;;;;;4898862;29;20094;-83
2023/04/11 00:08:37;;;;;;;3.92;1.20;;;8.20;99.90;;;;;;4898211;29;20079;-83
2023/04/11 00:11:04;;;;;;;5.25;1.25;;;8.10;99.90;;;;;;4883363;29;20116;-83
2023/04/11 00:13:31;;;;;;;3.40;1.17;;;8.00;99.90;;;;;;4868064;29;20049;-83
2023/04/11 00:15:58;;;;;;;3.92;1.10;;;8.00;99.90;;;;;;4898776;29;20517;-83
2023/04/11 00:18:24;;;;;;;4.88;1.20;;;8.00;99.90;;;;;;4883624;29;20037;-83
2023/04/11 00:20:51;;;;;;;4.40;1.02;;;7.90;99.90;;;;;;4866929;29;20064;-83
2023/04/11 00:23:18;;;;;;;3.33;0.93;;;7.90;99.90;;;;;;4864512;29;20132;-83
2023/04/11 00:25:44;;;;;;;4.30;1.20;;;7.90;99.90;;;;;;4879799;29;20042;-83
2023/04/11 00:28:11;;;;;;;4.47;1.25;;;7.80;99.90;;;;;;4864491;29;20048;-84
2023/04/11 00:30:38;;;;;;;4.35;1.48;;;7.80;99.90;;;;;;4864228;29;20106;-83
2023/04/11 00:33:05;;;;;;;7.65;1.40;;;7.80;99.90;;;;;;4861518;29;20038;-84
2023/04/11 00:35:33;;;;;;;4.68;1.10;;;7.80;99.90;;;;;;4846350;29;20042;-84
2023/04/11 00:38:01;;;;;;;4.47;1.10;;;7.80;99.90;;;;;;4846822;29;20050;-84
2023/04/11 00:40:27;;;;;;;7.72;1.73;;;7.70;99.90;;;;;;4861159;29;20133;-83
2023/04/11 00:42:55;;;;;;;5.30;1.27;;;7.80;99.90;;;;;;4863995;29;20170;-84
2023/04/11 00:45:22;;;;;;;2.50;0.98;;;7.70;99.90;;;;;;4879675;29;20502;-84
2023/04/11 00:47:49;;;;;;;4.85;1.20;;;7.70;99.90;;;;;;4879427;29;20105;-84
2023/04/11 00:50:17;;;;;;;5.00;0.93;;;7.60;99.90;;;;;;4864168;29;20041;-86
2023/04/11 00:52:46;;;;;;;3.65;1.20;;;7.60;99.90;;;;;;4879258;29;20053;-84
2023/04/11 00:55:13;;;;;;;4.43;0.95;;;7.50;99.90;;;;;;4879199;29;20097;-84
2023/04/11 00:57:41;;;;;;;5.00;1.25;;;7.50;99.90;;;;;;4894709;29;20041;-83
2023/04/11 01:00:09;;;;;;;2.72;1.20;;;7.40;99.90;;;;;;4864399;29;20059;-84
2023/04/11 01:02:41;;;;;;;3.80;1.05;;;7.30;99.90;;;;;;4864490;29;20057;-83
2023/04/11 01:05:10;;;;;;;6.60;1.30;;;7.30;99.90;;;;;;4861274;29;20049;-84
2023/04/11 01:07:38;;;;;;;4.93;1.20;;;7.20;99.90;;;;;;4860911;29;20054;-84
2023/04/11 01:10:06;;;;;;;2.45;1.10;;;7.20;99.90;;;;;;4860574;29;20066;-84
2023/04/11 01:12:34;;;;;;;3.70;1.27;;;7.10;99.90;;;;;;4860768;29;20381;-83
2023/04/11 01:15:02;;;;;;;4.25;1.10;;;7.00;99.90;;;;;;4863426;29;20045;-84
2023/04/11 01:17:31;;;;;;;4.50;1.40;;;7.10;99.90;;;;;;4879114;29;20428;-83
2023/04/11 01:19:59;;;;;;;4.25;1.08;;;7.00;99.90;;;;;;4864243;29;20045;-83
2023/04/11 01:22:27;;;;;;;5.72;1.20;;;6.90;99.90;;;;;;4878832;29;20045;-84
2023/04/11 01:24:55;;;;;;;3.63;1.10;;;7.00;99.90;;;;;;4875628;29;20053;-84
2023/04/11 01:27:22;;;;;;;3.30;1.10;;;7.00;99.90;;;;;;4860748;29;20081;-83
2023/04/11 01:29:48;;;;;;;5.97;1.33;;;7.00;99.90;;;;;;4845152;29;20105;-83
2023/04/11 01:32:15;;;;;;;5.80;1.58;;;7.00;99.90;;;;;;4860391;29;20411;-83
2023/04/11 01:34:45;;;;;;;6.55;1.17;;;7.00;99.90;;;;;;4860291;29;20049;-83
2023/04/11 01:37:12;;;;;;;6.30;1.40;;;6.90;99.90;;;;;;4860296;29;20046;-83
2023/04/11 01:39:39;;;;;;;7.50;1.35;;;6.90;99.90;;;;;;4860294;29;20053;-84
2023/04/11 01:42:06;;;;;;;6.63;1.42;;;6.90;99.90;;;;;;4860118;29;20101;-83
2023/04/11 01:44:35;;;;;;;5.38;1.23;;;6.90;99.90;;;;;;4859998;29;20057;-83
2023/04/11 01:47:02;;;;;;;5.80;1.20;;;6.90;99.90;;;;;;4875082;29;20495;-83
2023/04/11 01:49:28;;;;;;;8.55;1.65;;;6.80;99.90;;;;;;4845118;29;20057;-84
2023/04/11 01:51:55;;;;;;;7.50;1.40;;;6.90;99.90;;;;;;4859709;29;20106;-83
2023/04/11 01:54:22;;;;;;;5.65;1.50;;;6.80;99.90;;;;;;4845159;29;20080;-83
2023/04/11 01:56:49;;;;;;;5.50;1.40;;;6.90;99.90;;;;;;4874673;29;20103;-83
2023/04/11 01:59:15;;;;;;;5.20;1.40;;;6.80;99.90;;;;;;4860015;29;20050;-83
2023/04/11 02:01:45;;;;;;;8.73;1.25;;;6.80;99.90;;;;;;4844995;29;20046;-83
2023/04/11 02:04:12;;;;;;;8.85;1.45;;;6.70;99.90;;;;;;4860226;29;20050;-83
2023/04/11 02:06:39;;;;;;;7.25;1.40;;;6.70;99.90;;;;;;4875158;29;20052;-83
2023/04/11 02:09:06;;;;;;;8.10;1.40;;;6.80;99.90;;;;;;4859503;29;20068;-83
2023/04/11 02:11:33;;;;;;;4.68;1.00;;;6.70;99.90;;;;;;4859758;29;20057;-83
2023/04/11 02:14:01;;;;;;;4.70;1.30;;;6.70;99.90;;;;;;4859665;29;20042;-83
2023/04/11 02:16:28;;;;;;;8.48;2.00;;;6.60;99.90;;;;;;4859848;29;20046;-84
2023/04/11 02:18:55;;;;;;;4.20;1.40;;;6.70;99.90;;;;;;4844689;29;20087;-83
2023/04/11 02:21:22;;;;;;;8.68;1.27;;;6.70;99.90;;;;;;4844784;29;20128;-83
2023/04/11 02:23:49;;;;;;;6.70;2.15;;;6.70;99.90;;;;;;4859839;29;20125;-83
2023/04/11 02:26:15;;;;;;;8.63;1.65;;;6.70;99.90;;;;;;4843832;29;20388;-84
2023/04/11 02:28:42;;;;;;;7.07;1.67;;;6.80;99.90;;;;;;4847428;29;20801;-83
2023/04/11 02:31:09;;;;;;;7.60;1.70;;;6.80;99.90;;;;;;4862902;29;20104;-84
2023/04/11 02:33:35;;;;;;;7.30;1.50;;;6.70;99.90;;;;;;4862814;29;20041;-83
2023/04/11 02:36:02;;;;;;;6.38;1.50;;;6.80;99.90;;;;;;4877379;29;20049;-83
2023/04/11 02:38:29;;;;;;;6.15;1.60;;;6.80;99.90;;;;;;4862531;29;20049;-83
2023/04/11 02:40:58;;;;;;;8.70;1.50;;;6.80;99.90;;;;;;4877483;29;20082;-84
2023/04/11 02:43:24;;;;;;;7.75;1.48;;;6.90;99.90;;;;;;4862835;29;20049;-83
2023/04/11 02:45:51;;;;;;;4.63;1.40;;;6.90;99.90;;;;;;4862270;29;20718;-83
2023/04/11 02:48:18;;;;;;;9.70;1.70;;;6.90;99.90;;;;;;4862269;29;20084;-83
2023/04/11 02:50:45;;;;;;;8.43;1.23;;;6.90;99.90;;;;;;4862504;29;20472;-84
2023/04/11 02:53:12;;;;;;;8.18;1.65;;;6.90;99.90;;;;;;4862378;29;20033;-83
2023/04/11 02:55:40;;;;;;;5.45;1.20;;;6.90;99.90;;;;;;4892780;29;20477;-83
2023/04/11 02:58:07;;;;;;;7.55;1.65;;;6.90;99.90;;;;;;4862226;29;20067;-83
2023/04/11 03:00:33;;;;;;;8.18;1.15;;;7.00;99.90;;;;;;4847118;29;20049;-83
2023/04/11 03:03:01;;;;;;;7.28;1.55;;;7.00;99.90;;;;;;4862456;29;20046;-83
2023/04/11 03:05:28;;;;;;;7.65;1.40;;;7.00;99.90;;;;;;4862704;29;20140;-82
2023/04/11 03:07:56;;;;;;;7.47;1.65;;;7.00;99.90;;;;;;4847386;29;20156;-83
2023/04/11 03:10:23;;;;;;;7.40;1.60;;;7.00;99.90;;;;;;4847166;29;20077;-83
2023/04/11 03:12:49;;;;;;;6.95;1.30;;;7.00;99.90;;;;;;4862360;29;20038;-83
2023/04/11 03:15:16;;;;;;;6.32;1.30;;;7.00;99.90;;;;;;4862298;29;20061;-83
2023/04/11 03:17:43;;;;;;;4.07;1.30;;;7.00;99.90;;;;;;4861975;29;20109;-83
2023/04/11 03:20:12;;;;;;;5.05;1.30;;;7.10;99.90;;;;;;4858719;29;20056;-83
2023/04/11 03:22:39;;;;;;;6.75;1.10;;;7.00;99.90;;;;;;4874934;29;20499;-83
2023/04/11 03:25:06;;;;;;;2.30;1.02;;;6.90;99.90;;;;;;4876983;29;20041;-83
2023/04/11 03:27:33;;;;;;;3.25;1.08;;;7.00;99.90;;;;;;4846965;29;20494;-83
2023/04/11 03:30:00;;;;;;;5.20;1.42;;;7.10;99.90;;;;;;4861805;29;20045;-83
2023/04/11 03:32:26;;;;;;;3.63;1.00;;;6.90;99.90;;;;;;4861838;29;20084;-83
2023/04/11 03:34:53;;;;;;;2.63;0.70;;;6.90;99.90;;;;;;4861632;29;20041;-83
2023/04/11 03:37:20;;;;;;;1.85;0.90;;;6.80;99.90;;;;;;4863112;29;20044;-83
2023/04/11 03:39:46;;;;;;;3.45;0.90;;;6.90;99.90;;;;;;4865604;29;20502;-83
2023/04/11 03:42:13;;;;;;;3.08;0.82;;;6.90;99.90;;;;;;4849984;29;20038;-83
2023/04/11 03:44:40;;;;;;;4.68;1.25;;;6.80;99.90;;;;;;4865389;29;20059;-83
2023/04/11 03:47:06;;;;;;;5.22;1.02;;;6.90;99.90;;;;;;4865283;29;20037;-83
2023/04/11 03:49:33;;;;;;;3.47;0.98;;;6.80;99.90;;;;;;4865683;29;20498;-84
2023/04/11 03:52:00;;;;;;;2.15;0.80;;;6.80;99.90;;;;;;4865473;29;20117;-83
2023/04/11 03:54:27;;;;;;;5.93;1.10;;;6.90;99.90;;;;;;4865237;29;20072;-83
2023/04/11 03:56:53;;;;;;;3.25;0.98;;;6.90;99.90;;;;;;4865523;29;20830;-83
2023/04/11 03:59:20;;;;;;;1.88;1.00;;;6.90;99.90;;;;;;4865234;29;20038;-83
2023/04/11 04:01:47;;;;;;;5.38;1.15;;;6.90;99.90;;;;;;4880750;29;20057;-84
2023/04/11 04:04:13;;;;;;;4.68;1.08;;;6.90;99.90;;;;;;4861772;29;20050;-83
2023/04/11 04:06:40;;;;;;;8.55;1.10;;;6.80;99.90;;;;;;4846747;29;20046;-84
2023/04/11 04:09:07;;;;;;;5.15;1.30;;;6.90;99.90;;;;;;4846517;29;20137;-84
2023/04/11 04:11:34;;;;;;;3.47;1.02;;;6.90;99.90;;;;;;4847256;29;20079;-84
2023/04/11 04:14:01;;;;;;;5.45;1.10;;;6.90;99.90;;;;;;4846487;29;20118;-84
2023/04/11 04:16:27;;;;;;;2.70;1.08;;;6.90;99.90;;;;;;4846698;29;20118;-84
2023/04/11 04:18:54;;;;;;;3.67;0.95;;;6.90;99.90;;;;;;4846719;29;20418;-84
2023/04/11 04:21:21;;;;;;;4.22;1.17;;;7.00;99.90;;;;;;4861386;29;20539;-83
2023/04/11 04:23:47;;;;;;;3.72;1.25;;;6.90;99.90;;;;;;4877083;29;20526;-84
2023/04/11 04:26:23;;;;;;;9.00;1.40;;;7.00;99.90;;;;;;4846522;29;20056;-84
2023/04/11 04:28:52;;;;;;;3.95;1.10;;;6.90;99.90;;;;;;4861377;29;20415;-84
2023/04/11 04:31:24;;;;;;;5.43;1.40;;;6.90;99.90;;;;;;4846718;29;20529;-83
2023/04/11 04:33:51;;;;;;;4.22;1.30;;;6.90;99.90;;;;;;4862058;29;20487;-83
2023/04/11 04:36:17;;;;;;;6.43;1.55;;;7.00;99.90;;;;;;4861286;29;20048;-84
2023/04/11 04:38:44;;;;;;;4.90;1.17;;;7.00;99.90;;;;;;4876211;29;20136;-84
2023/04/11 04:41:13;;;;;;;8.05;1.60;;;6.90;99.90;;;;;;4876090;29;20073;-84
2023/04/11 04:43:41;;;;;;;8.10;1.45;;;6.90;99.90;;;;;;4876111;29;20045;-84
2023/04/11 04:46:08;;;;;;;8.88;1.73;;;6.90;99.90;;;;;;4871027;29;20422;-84
2023/04/11 04:48:34;;;;;;;7.13;1.58;;;6.90;99.90;;;;;;4863243;29;20128;-84
2023/04/11 04:51:03;;;;;;;8.52;1.50;;;6.90;99.90;;;;;;4864215;29;20495;-84
2023/04/11 04:53:33;;;;;;;9.80;1.85;;;6.90;99.90;;;;;;4879021;29;20049;-84
2023/04/11 04:56:00;;;;;;;9.25;1.73;;;7.00;99.90;;;;;;4876154;29;20053;-83
2023/04/11 04:58:27;;;;;;;5.22;1.48;;;7.00;99.90;;;;;;4860702;29;20073;-83
2023/04/11 05:00:54;;;;;;;8.23;1.70;;;7.00;99.90;;;;;;4860550;29;20093;-83
2023/04/11 05:03:21;;;;;;;6.80;1.77;;;7.00;99.90;;;;;;4845267;29;20042;-84
2023/04/11 05:05:48;;;;;;;11.80;1.90;;;7.00;99.90;;;;;;4845732;29;20140;-83
2023/04/11 05:08:19;;;;;;;12.52;2.20;;;7.10;99.90;;;;;;4860468;29;20046;-84
2023/04/11 05:10:46;;;;;;;5.78;1.90;;;7.10;99.90;;;;;;4875600;29;20058;-83
2023/04/11 05:13:12;;;;;;;6.10;1.70;;;7.10;99.90;;;;;;4860670;29;20045;-84
2023/04/11 05:15:45;;;;;;;8.23;2.17;;;7.10;99.90;;;;;;4860271;29;20042;-83
2023/04/11 05:18:12;;;;;;;8.80;1.88;;;7.10;99.90;;;;;;4874378;29;20042;-83
2023/04/11 05:20:38;;;;;;;7.38;2.30;;;7.10;99.90;;;;;;4860519;29;20046;-84
2023/04/11 05:23:05;;;;;;;10.82;1.90;;;7.10;99.90;;;;;;4860419;29;20554;-83
2023/04/11 05:25:32;;;;;;;9.93;1.83;;;7.10;99.90;;;;;;4875421;29;20057;-83
2023/04/11 05:27:58;;;;;;;10.73;2.17;;;7.10;99.90;;;;;;4879033;29;20041;-83
2023/04/11 05:30:25;;;;;;;8.02;2.17;;;7.20;99.90;;;;;;4848172;29;20049;-84
2023/04/11 05:32:52;;;;;;;7.10;1.90;;;7.20;99.90;;;;;;4849638;29;20041;-83
2023/04/11 05:35:18;;;;;;;6.78;1.90;;;7.20;99.90;;;;;;4851038;29;20038;-83
2023/04/11 05:37:45;;;;;;;9.63;1.83;;;7.20;99.90;;;;;;4850751;29;20041;-84
2023/04/11 05:40:12;;;;;;;15.75;2.30;;;7.30;99.90;;;;;;4878465;29;20046;-84
2023/04/11 05:42:39;;;;;;;9.23;2.13;;;7.30;99.90;;;;;;4863141;29;20132;-83
2023/04/11 05:45:06;;;;;;;11.73;2.75;;;7.30;99.90;;;;;;4863486;29;20049;-83
2023/04/11 05:47:33;;;;;;;9.43;2.20;;;7.30;99.90;;;;;;4863539;29;20092;-83
2023/04/11 05:50:00;;;;;;;6.10;2.20;;;7.30;99.90;;;;;;4863131;29;20081;-83
2023/04/11 05:52:26;;;;;;;12.00;3.45;;;7.40;99.90;;;;;;4893775;29;20086;-83
2023/04/11 05:54:53;;;;;;;13.50;2.50;;;7.50;99.90;;;;;;4863110;29;20064;-83
2023/04/11 05:57:20;;;;;;;10.20;3.80;;;7.30;99.90;;;;;;4862987;29;20105;-84
2023/04/11 05:59:51;;;;;;;14.75;4.60;;;7.30;99.90;;;;;;4862030;29;20076;-83
2023/04/11 06:02:18;;;;;;;13.85;5.07;;;7.40;99.90;;;;;;4863558;29;20109;-83
2023/04/11 06:04:44;;;;;;;8.63;2.20;;;7.40;99.90;;;;;;4862878;29;20045;-83
2023/04/11 06:07:11;;;;;;;11.07;4.10;;;7.40;99.90;;;;;;4862774;29;20049;-83
2023/04/11 06:09:41;;;;;;;8.10;3.50;;;7.40;99.90;;;;;;4859016;29;20046;-83
2023/04/11 06:12:08;;;;;;;9.10;2.58;;;7.40;99.90;;;;;;4859535;29;20081;-83
2023/04/11 06:14:35;;;;;;;6.80;2.22;;;7.40;99.90;;;;;;4859459;29;20495;-83
2023/04/11 06:17:02;;;;;;;6.88;2.08;;;7.40;99.90;;;;;;4859324;29;20046;-83
2023/04/11 06:19:28;;;;;;;8.45;2.10;;;7.30;99.90;;;;;;4844034;29;20415;-83
2023/04/11 06:21:55;;;;;;;11.50;2.85;;;7.40;99.90;;;;;;4844663;29;20517;-83
2023/04/11 06:24:37;;;;;;;6.50;1.70;;;7.40;99.90;;;;;;4844238;29;20053;-85
2023/04/11 06:27:04;;;;;;;7.30;1.80;;;7.40;99.90;;;;;;4859786;29;20137;-85
2023/04/11 06:29:31;;;;;;;6.32;2.15;;;7.40;99.90;;;;;;4844064;29;20049;-84
2023/04/11 06:31:58;;;;;;;5.60;1.75;;;7.50;99.90;;;;;;4829268;29;20041;-85
2023/04/11 06:34:25;;;;;;;6.32;2.05;;;7.50;99.90;;;;;;4845093;29;20138;-85
2023/04/11 06:36:51;;;;;;;6.15;1.73;;;7.50;99.90;;;;;;4890149;29;20046;-85
2023/04/11 06:39:19;;;;;;;15.73;2.47;;;7.50;99.90;;;;;;4844197;29;20049;-85
2023/04/11 06:41:46;;;;;;;6.55;2.28;;;7.50;99.90;;;;;;4860528;29;20054;-84
2023/04/11 06:44:13;;;;;;;7.25;1.80;;;7.50;99.90;;;;;;4877878;29;20041;-85
2023/04/11 06:46:40;;;;;;;12.25;2.17;;;7.50;99.90;;;;;;4877451;29;20436;-85
2023/04/11 06:49:08;;;;;;;10.75;2.35;;;7.50;99.90;;;;;;4877337;29;20132;-85
2023/04/11 06:51:35;;;;;;;14.43;2.63;;;7.50;99.90;;;;;;4877774;29;20053;-84
2023/04/11 06:54:03;;;;;;;9.68;2.40;;;7.50;99.90;;;;;;4877183;29;20056;-84
2023/04/11 06:56:29;;;;;;;13.82;2.22;;;7.50;99.90;;;;;;4877327;29;20041;-85
2023/04/11 06:58:56;;;;;;;7.45;2.10;;;7.50;99.90;;;;;;4862210;29;20129;-84
2023/04/11 07:01:24;;;;;;;6.43;2.00;;;7.50;99.90;;;;;;4862477;29;20045;-85
2023/04/11 07:03:54;;;;;;;11.15;2.60;;;7.40;99.90;;;;;;4858791;29;20507;-85
2023/04/11 07:06:20;;;;;;;8.55;2.05;;;7.50;99.90;;;;;;4844696;29;20041;-84
2023/04/11 07:08:47;;;;;;;8.05;1.63;;;7.50;99.90;;;;;;4843423;29;20072;-85
2023/04/11 07:11:14;;;;;;;8.98;2.30;;;7.50;99.90;;;;;;4858807;29;20065;-85
2023/04/11 07:13:41;;;;;;;6.90;2.10;;;7.60;99.90;;;;;;4843574;29;20046;-85
2023/04/11 07:16:08;;;;;;;9.35;2.20;;;7.70;99.90;;;;;;4859146;29;20037;-85
2023/04/11 07:18:35;;;;;;;10.35;2.28;;;7.80;99.90;;;;;;4858973;29;20038;-85
2023/04/11 07:21:01;;;;;;;12.02;2.85;;;7.80;99.90;;;;;;4859284;29;20593;-85
2023/04/11 07:23:28;;;;;;;8.95;2.38;;;7.80;99.90;;;;;;4858735;29;20052;-85
2023/04/11 07:25:56;;;;;;;9.65;2.50;;;7.90;99.90;;;;;;4859000;29;20053;-84
2023/04/11 07:28:23;;;;;;;11.55;2.50;;;7.90;99.90;;;;;;4874163;29;20050;-84
2023/04/11 07:30:51;;;;;;;6.90;2.30;;;8.00;99.90;;;;;;4888063;29;20053;-85
2023/04/11 07:33:17;;;;;;;11.02;2.40;;;8.10;99.90;;;;;;4870799;29;20043;-85
2023/04/11 07:35:44;;;;;;;7.35;1.52;;;8.20;99.90;;;;;;4862082;29;20045;-84
2023/04/11 07:38:11;;;;;;;7.82;1.70;;;8.20;99.90;;;;;;4847122;29;20053;-84
2023/04/11 07:40:38;;;;;;;10.65;2.00;;;8.10;99.90;;;;;;4846960;29;20052;-85
2023/04/11 07:43:05;;;;;;;8.43;1.60;;;7.90;99.90;;;;;;4847213;29;20046;-86
2023/04/11 07:45:32;;;;;;;6.85;2.03;;;7.80;99.90;;;;;;4860532;29;20557;-85
2023/04/11 07:47:59;;;;;;;10.95;2.00;;;7.70;99.90;;;;;;4879328;29;20510;-85
2023/04/11 07:50:26;;;;;;;11.23;2.00;;;7.90;99.90;;;;;;4865365;29;20045;-86
2023/04/11 07:52:52;;;;;;;8.70;2.28;;;8.10;99.90;;;;;;4872144;29;20180;-85
2023/04/11 07:55:19;;;;;;;7.40;1.73;;;8.20;99.90;;;;;;4858163;29;20046;-85
2023/04/11 07:57:46;;;;;;;4.32;1.65;;;8.30;99.90;;;;;;4859037;29;20049;-84
2023/04/11 08:00:22;;;;;;;6.05;1.52;;;8.30;99.90;;;;;;4843759;29;20049;-85
2023/04/11 08:02:50;;;;;;;8.70;1.70;;;8.30;99.90;;;;;;4858062;29;20186;-84
2023/04/11 08:05:18;;;;;;;9.40;2.17;;;8.40;99.90;;;;;;4878611;29;20109;-85
2023/04/11 08:07:44;;;;;;;11.07;2.00;;;8.40;99.90;;;;;;4851375;29;20566;-86
2023/04/11 08:10:11;;;;;;;13.80;2.45;;;8.50;99.90;;;;;;4855074;29;20181;-86
2023/04/11 08:12:38;;;;;;;9.85;1.90;;;8.50;99.90;;;;;;4861395;29;20122;-86
2023/04/11 08:15:05;;;;;;;11.55;1.92;;;8.70;99.90;;;;;;4862052;29;20046;-85
2023/04/11 08:17:36;;;;;;;13.32;2.00;;;8.70;99.90;;;;;;4862090;29;20050;-85
2023/04/11 08:20:04;;;;;;;10.05;1.83;;;8.90;99.90;;;;;;4847965;29;20046;-85
2023/04/11 08:22:32;;;;;;;10.77;2.22;;;9.10;99.90;;;;;;4866118;29;20048;-85
2023/04/11 08:24:58;;;;;;;7.47;2.03;;;9.20;99.90;;;;;;4870844;29;20052;-86
2023/04/11 08:27:25;;;;;;;9.32;1.80;;;9.20;99.90;;;;;;4865039;29;20418;-85
2023/04/11 08:29:52;;;;;;;5.72;1.20;;;9.10;99.90;;;;;;4861857;29;20045;-85
2023/04/11 08:32:18;;;;;;;6.10;1.27;;;8.50;99.90;;;;;;4884139;29;20033;-86
2023/04/11 08:34:45;;;;;;;3.72;0.90;;;8.20;99.90;;;;;;4865894;29;20077;-85
2023/04/11 08:37:12;;;;;;;4.20;1.20;;;8.00;99.90;;;;;;4884085;29;20053;-85
2023/04/11 08:39:38;;;;;;;7.50;1.58;;;7.60;99.90;;;;;;4864472;29;20109;-85
2023/04/11 08:42:05;;;;;;;5.93;1.30;;;7.50;99.90;;;;;;4880002;29;20045;-84
2023/04/11 08:44:32;;;;;;;10.80;1.80;;;7.50;99.90;;;;;;4882752;29;20102;-85
2023/04/11 08:46:59;;;;;;;7.78;2.13;;;7.80;99.90;;;;;;4879416;29;20069;-84
2023/04/11 08:49:25;;;;;;;7.05;1.63;;;8.00;99.90;;;;;;4864159;29;20102;-84
2023/04/11 08:51:55;;;;;;;7.68;1.80;;;8.20;99.90;;;;;;4882757;29;20037;-84
2023/04/11 08:54:21;;;;;;;11.93;2.20;;;8.40;99.90;;;;;;4897865;29;20513;-84
2023/04/11 08:56:48;;;;;;;8.07;2.05;;;8.70;99.90;;;;;;4866210;29;20049;-83
2023/04/11 08:59:16;;;;;;;9.57;2.25;;;8.70;99.90;;;;;;4841143;29;20048;-85
2023/04/11 09:01:43;;;;;;;10.77;2.40;;;8.80;99.90;;;;;;4865431;29;20411;-84
2023/04/11 09:04:10;;;;;;;8.75;1.70;;;8.80;99.90;;;;;;4867006;29;20052;-84
2023/04/11 09:06:38;;;;;;;10.98;1.77;;;8.90;99.90;;;;;;4897807;29;20101;-84
2023/04/11 09:09:05;;;;;;;10.27;2.03;;;9.10;99.90;;;;;;4864056;29;20068;-84
2023/04/11 09:11:52;;;;;;;9.05;1.63;;;9.20;99.90;;;;;;4879287;29;20136;-84
2023/04/11 09:14:25;;;;;;;5.72;1.70;;;9.40;99.90;;;;;;4894637;29;20064;-84
2023/04/11 09:16:58;;;;;;;7.93;1.83;;;9.50;99.90;;;;;;4879026;29;20490;-83
2023/04/11 09:19:26;;;;;;;9.48;2.33;;;9.50;99.90;;;;;;4846260;29;20060;-84
2023/04/11 09:21:55;;;;;;;8.23;1.70;;;9.40;99.90;;;;;;4860540;29;20077;-83
2023/04/11 09:24:22;;;;;;;9.45;1.90;;;9.40;99.90;;;;;;4881154;29;20072;-84
2023/04/11 09:26:50;;;;;;;5.15;2.00;;;9.50;99.90;;;;;;4897491;29;20049;-84
2023/04/11 09:29:35;;;;;;;4.72;1.30;;;9.50;99.90;;;;;;4896242;29;20132;-83
2023/04/11 09:32:02;;;;;;;2.45;1.20;;;9.70;99.90;;;;;;4897051;29;20391;-84
2023/04/11 09:34:30;;;;;;;4.80;1.30;;;9.10;99.90;;;;;;4864583;29;20409;-83
2023/04/11 09:36:56;;;;;;;4.57;1.42;;;8.80;99.90;;;;;;4848510;29;20384;-84
2023/04/11 09:39:27;;;;;;;2.95;1.17;;;8.60;99.90;;;;;;4863443;29;20055;-83
2023/04/11 09:41:54;;;;;;;4.50;1.25;;;8.30;99.90;;;;;;4879063;29;20208;-83
2023/04/11 09:44:37;;;;;;;6.80;1.27;;;8.50;99.90;;;;;;4877339;29;20106;-83
2023/04/11 09:47:04;;;;;;;7.63;1.45;;;8.50;99.90;;;;;;4912625;29;20432;-84
2023/04/11 09:49:33;;;;;;;6.65;1.50;;;8.40;99.90;;;;;;4881161;29;20101;-84
2023/04/11 09:52:00;;;;;;;8.48;1.45;;;8.40;99.90;;;;;;4881801;29;20060;-84
2023/04/11 09:54:27;;;;;;;7.05;1.60;;;8.30;99.90;;;;;;4896646;29;20040;-84
2023/04/11 09:56:55;;;;;;;9.05;1.58;;;8.40;99.90;;;;;;4866284;29;20045;-84
2023/04/11 09:59:25;;;;;;;6.85;1.55;;;8.50;99.90;;;;;;4897128;29;20049;-84
2023/04/11 10:01:52;;;;;;;6.82;1.40;;;8.80;99.90;;;;;;4886774;29;20494;-83
2023/04/11 10:04:19;;;;;;;6.25;1.40;;;9.10;99.90;;;;;;4886038;29;20056;-84
2023/04/11 10:07:13;;;;;;;5.93;1.30;;;9.50;99.90;;;;;;4863106;29;20049;-84
2023/04/11 10:09:42;;;;;;;8.52;1.30;;;9.70;99.90;;;;;;4877520;29;20140;-84
2023/04/11 10:12:08;;;;;;;5.78;1.10;;;10.00;99.90;;;;;;4880662;29;20132;-84
2023/04/11 10:14:40;;;;;;;5.95;1.00;;;10.10;99.90;;;;;;4859071;29;20116;-85
2023/04/11 10:17:14;;;;;;;4.85;1.13;;;10.30;99.90;;;;;;4877627;29;20080;-85
2023/04/11 10:19:42;;;;;;;5.13;1.30;;;10.20;99.90;;;;;;4877882;29;20075;-84
2023/04/11 10:22:10;;;;;;;6.30;1.30;;;10.40;99.90;;;;;;4877505;29;20138;-84
2023/04/11 10:24:37;;;;;;;9.68;1.75;;;10.50;99.90;;;;;;4872550;29;20073;-84
2023/04/11 10:27:05;;;;;;;5.40;1.45;;;10.70;99.90;;;;;;4865748;29;20046;-84
2023/04/11 10:29:39;;;;;;;10.02;1.50;;;10.60;99.90;;;;;;4870557;29;20464;-83
2023/04/11 10:32:10;;;;;;;8.25;2.13;;;10.30;99.90;;;;;;4879742;29;20517;-84
2023/04/11 10:34:59;;;;;;;9.40;1.50;;;10.20;99.90;;;;;;4877828;29;20046;-84
2023/04/11 10:37:28;;;;;;;6.35;1.35;;;9.70;99.90;;;;;;4864443;29;20049;-84
2023/04/11 10:39:57;;;;;;;7.68;1.13;;;9.30;99.90;;;;;;4877297;29;20053;-84
2023/04/11 10:42:28;;;;;;;5.10;1.48;;;9.10;99.90;;;;;;4877405;29;20046;-83
2023/04/11 10:45:17;;;;;;;6.70;1.45;;;8.80;99.90;;;;;;4892466;29;20045;-84
2023/04/11 10:47:56;;;;;;;3.75;1.10;;;8.70;99.90;;;;;;4877482;29;20050;-83
2023/04/11 10:50:22;;;;;;;6.05;1.25;;;8.50;99.90;;;;;;4874746;29;20041;-84
2023/04/11 10:52:49;;;;;;;5.10;0.98;;;8.40;99.90;;;;;;4877361;29;20053;-83
2023/04/11 10:55:17;;;;;;;3.38;1.02;;;8.40;99.90;;;;;;4862295;29;20041;-84
2023/04/11 10:58:06;;;;;;;4.57;0.90;;;8.10;99.90;;;;;;4892522;29;20514;-83
2023/04/11 11:00:45;;;;;;;5.10;1.13;;;7.80;99.90;;;;;;4884424;29;20123;-84
2023/04/11 11:03:17;;;;;;;1.00;0.63;;;7.70;99.90;;;;;;4886911;29;20042;-84
2023/04/11 11:05:44;;;;;;;1.27;0.55;;;7.40;99.90;;;;;;4892619;29;20049;-84
2023/04/11 11:08:11;;;;;;;2.17;0.70;;;7.30;99.90;;;;;;4861776;29;20513;-83
2023/04/11 11:10:44;;;;;;;2.17;0.85;;;7.10;99.90;;;;;;4892302;29;20053;-84
2023/04/11 11:13:14;;;;;;;2.10;0.70;;;6.90;99.90;;;;;;4877185;29;20049;-83
2023/04/11 11:15:48;;;;;;;1.85;0.60;;;6.80;99.90;;;;;;4876965;29;20038;-84
2023/04/11 11:18:16;;;;;;;1.65;0.65;;;6.80;99.90;;;;;;4876837;29;20108;-84
2023/04/11 11:20:43;;;;;;;3.65;0.90;;;6.80;99.90;;;;;;4877042;29;20128;-84
2023/04/11 11:23:10;;;;;;;4.10;1.00;;;6.90;99.90;;;;;;4861884;29;20128;-84
2023/04/11 11:25:37;;;;;;;4.53;0.98;;;6.90;99.90;;;;;;4858913;29;20053;-84
2023/04/11 11:28:05;;;;;;;4.10;1.02;;;6.90;99.90;;;;;;4858971;29;20772;-83
2023/04/11 11:30:33;;;;;;;5.75;1.30;;;7.10;99.90;;;;;;4873643;29;20537;-84
2023/04/11 11:33:17;;;;;;;5.43;1.08;;;7.10;99.90;;;;;;4876546;29;20216;-84
2023/04/11 11:36:04;;;;;;;5.57;1.27;;;7.40;99.90;;;;;;4862024;29;20044;-84
2023/04/11 11:38:31;;;;;;;4.93;1.00;;;7.80;99.90;;;;;;4861947;29;20718;-83
2023/04/11 11:40:58;;;;;;;5.82;1.20;;;7.90;99.90;;;;;;4862031;29;20132;-85
2023/04/11 11:43:29;;;;;;;3.30;0.90;;;8.00;99.90;;;;;;4870991;29;20064;-85
2023/04/11 11:46:16;;;;;;;4.95;0.88;;;8.00;99.90;;;;;;4861990;29;20132;-85
2023/04/11 11:48:57;;;;;;;2.45;0.75;;;7.80;99.90;;;;;;4858739;29;20045;-85
2023/04/11 11:51:24;;;;;;;2.33;1.00;;;7.90;99.90;;;;;;4858366;29;20094;-85
2023/04/11 11:54:08;;;;;;;1.50;0.85;;;7.90;99.90;;;;;;4828693;29;20138;-85
2023/04/11 11:56:39;;;;;;;2.70;0.80;;;7.90;99.90;;;;;;4858936;29;20539;-85
2023/04/11 11:59:07;;;;;;;5.68;0.93;;;8.00;99.90;;;;;;4861697;29;20042;-85
2023/04/11 12:01:34;;;;;;;3.97;0.80;;;8.00;99.90;;;;;;4880634;29;20049;-85
2023/04/11 12:04:04;;;;;;;3.10;0.75;;;8.20;99.90;;;;;;4865257;29;20048;-85
2023/04/11 12:06:32;;;;;;;6.15;1.10;;;8.40;99.90;;;;;;4865271;29;20441;-86
2023/04/11 12:09:06;;;;;;;5.05;1.10;;;8.60;99.90;;;;;;4864889;29;20473;-85
2023/04/11 12:11:37;;;;;;;4.72;1.00;;;8.90;99.90;;;;;;4880426;29;20113;-85
2023/04/11 12:14:04;;;;;;;5.63;1.48;;;9.00;99.90;;;;;;4880175;29;20041;-85
2023/04/11 12:16:30;;;;;;;3.28;0.80;;;9.10;99.90;;;;;;4880097;29;20056;-85
2023/04/11 12:19:01;;;;;;;5.25;1.00;;;9.10;99.90;;;;;;4865297;29;20506;-85
2023/04/11 12:21:31;;;;;;;4.40;0.90;;;9.00;99.90;;;;;;4864905;29;20053;-85
2023/04/11 12:23:57;;;;;;;3.70;0.73;;;9.00;99.90;;;;;;4861610;29;20050;-85
2023/04/11 12:26:24;;;;;;;3.33;1.00;;;9.00;99.90;;;;;;4846160;29;20507;-85
2023/04/11 12:28:51;;;;;;;5.63;0.90;;;9.00;99.90;;;;;;4846558;29;20049;-85
2023/04/11 12:31:19;;;;;;;6.55;1.40;;;9.10;99.90;;;;;;4846222;29;20403;-85
2023/04/11 12:33:46;;;;;;;8.80;1.55;;;9.20;99.90;;;;;;4850235;29;20050;-85
2023/04/11 12:36:12;;;;;;;9.80;1.95;;;9.40;99.90;;;;;;4864727;29;20517;-85
2023/04/11 12:38:39;;;;;;;7.13;1.70;;;9.70;99.90;;;;;;4850075;29;20046;-86
2023/04/11 12:41:07;;;;;;;8.95;2.00;;;9.80;99.90;;;;;;4865024;29;20132;-86
2023/04/11 12:43:34;;;;;;;7.60;1.40;;;10.00;99.90;;;;;;4879546;29;20117;-85
2023/04/11 12:46:00;;;;;;;5.93;1.60;;;10.20;99.90;;;;;;4865165;29;20049;-86
2023/04/11 12:48:27;;;;;;;9.88;1.90;;;10.30;99.90;;;;;;4864256;29;20045;-85
2023/04/11 12:50:54;;;;;;;8.30;1.70;;;10.40;99.90;;;;;;4864287;29;20041;-85
2023/04/11 12:53:20;;;;;;;10.15;1.92;;;10.40;99.90;;;;;;4879934;29;20052;-86
2023/04/11 12:55:47;;;;;;;6.53;1.50;;;10.40;99.90;;;;;;4861000;29;20110;-85
2023/04/11 12:58:14;;;;;;;11.15;1.90;;;10.20;99.90;;;;;;4860720;29;20133;-85
2023/04/11 13:00:41;;;;;;;9.18;1.65;;;10.00;99.90;;;;;;4846261;29;20066;-85